createdAt,value
2019-05-22T00:00:30.026Z,95339.34
2019-05-22T00:03:12.741Z,95343.33
2019-05-22T00:06:05.898Z,95339.73
2019-05-22T00:08:37.189Z,95340.25
2019-05-22T00:11:09.391Z,95337.89
2019-05-22T00:13:40.559Z,95340.05
2019-05-22T00:16:11.451Z,95343.63
2019-05-22T00:18:40.517Z,95342.10
2019-05-22T00:21:10.676Z,95349.42
2019-05-22T00:23:41.511Z,95351.51
2019-05-22T00:26:12.025Z,95353.94
2019-05-22T00:28:41.752Z,95356.44
2019-05-22T00:31:13.923Z,95354.89
2019-05-22T00:33:44.212Z,95355.52
2019-05-22T00:36:13.652Z,95357.28
2019-05-22T00:38:43.834Z,95357.95
2019-05-22T00:41:12.969Z,95359.63
2019-05-22T00:43:45.089Z,95356.67
2019-05-22T00:46:16.380Z,95356.23
2019-05-22T00:48:48.242Z,95361.85
2019-05-22T00:51:37.040Z,95354.57
2019-05-22T00:54:17.560Z,95355.92
2019-05-22T00:56:57.619Z,95351.38
2019-05-22T00:59:35.826Z,95348.77
2019-05-22T01:02:12.590Z,95351.87
2019-05-22T01:04:42.600Z,95356.02
2019-05-22T01:07:20.933Z,95347.59
2019-05-22T01:09:52.282Z,95353.77
2019-05-22T01:12:27.269Z,95348.66
2019-05-22T01:14:58.868Z,95358.45
2019-05-22T01:17:30.160Z,95357.95
2019-05-22T01:20:01.365Z,95356.23
2019-05-22T01:22:31.176Z,95359.13
2019-05-22T01:25:02.837Z,95358.34
2019-05-22T01:27:32.719Z,95353.47
2019-05-22T01:30:03.825Z,95350.23
2019-05-22T01:32:46.730Z,95358.19
2019-05-22T01:35:16.793Z,95356.52
2019-05-22T01:37:46.138Z,95356.89
2019-05-22T01:40:36.834Z,95360.91
2019-05-22T01:43:09.689Z,95359.17
2019-05-22T01:45:40.140Z,95364.98
2019-05-22T01:48:15.490Z,95365.05
2019-05-22T01:50:48.987Z,95360.70
2019-05-22T01:53:21.870Z,95360.88
2019-05-22T01:55:53.434Z,95359.10
2019-05-22T01:58:23.903Z,95357.28
2019-05-22T02:00:55.571Z,95355.77
2019-05-22T02:03:25.423Z,95357.52
2019-05-22T02:05:55.207Z,95361.10
2019-05-22T02:08:27.299Z,95360.99
2019-05-22T02:11:00.154Z,95358.39
2019-05-22T02:13:33.185Z,95358.37
2019-05-22T02:16:02.783Z,95368.03
2019-05-22T02:18:34.333Z,95369.58
2019-05-22T02:21:04.753Z,95367.89
2019-05-22T02:23:35.856Z,95370.89
2019-05-22T02:26:07.609Z,95367.13
2019-05-22T02:28:38.808Z,95365.56
2019-05-22T02:31:08.551Z,95372.48
2019-05-22T02:33:39.764Z,95364.52
2019-05-22T02:36:09.353Z,95363.97
2019-05-22T02:38:39.948Z,95371.66
2019-05-22T02:41:13.988Z,95367.83
2019-05-22T02:43:40.243Z,95374.87
2019-05-22T02:46:12.115Z,95373.98
2019-05-22T02:48:42.426Z,95370.36
2019-05-22T02:51:12.753Z,95378.64
2019-05-22T02:53:41.648Z,95369.77
2019-05-22T02:56:11.165Z,95359.18
2019-05-22T02:58:40.550Z,95366.09
2019-05-22T03:01:11.755Z,95357.08
2019-05-22T03:03:46.072Z,95366.16
2019-05-22T03:06:18.168Z,95360.05
2019-05-22T03:09:03.491Z,95370.02
2019-05-22T03:11:40.732Z,95366.37
2019-05-22T03:14:13.750Z,95362.50
2019-05-22T03:17:03.294Z,95357.56
2019-05-22T03:19:36.755Z,95367.16
2019-05-22T03:22:26.293Z,95371.80
2019-05-22T03:24:58.216Z,95373.93
2019-05-22T03:27:50.874Z,95368.48
2019-05-22T03:30:24.758Z,95366.45
2019-05-22T03:32:56.598Z,95375.28
2019-05-22T03:35:28.303Z,95372.39
2019-05-22T03:37:59.286Z,95374.00
2019-05-22T03:40:29.968Z,95377.55
2019-05-22T03:43:02.286Z,95377.27
2019-05-22T03:45:32.900Z,95381.70
2019-05-22T03:48:05.033Z,95379.45
2019-05-22T03:50:33.856Z,95379.45
2019-05-22T03:53:08.427Z,95383.16
2019-05-22T03:55:38.259Z,95384.14
2019-05-22T03:58:08.690Z,95378.34
2019-05-22T04:00:43.337Z,95387.22
2019-05-22T04:03:12.952Z,95388.88
2019-05-22T04:05:42.254Z,95391.70
2019-05-22T04:08:13.705Z,95392.28
2019-05-22T04:11:03.240Z,95388.67
2019-05-22T04:13:33.610Z,95390.55
2019-05-22T04:16:04.763Z,95395.33
2019-05-22T04:18:33.641Z,95388.20
2019-05-22T04:21:03.627Z,95391.48
2019-05-22T04:23:32.660Z,95403.73
2019-05-22T04:26:01.980Z,95403.17
2019-05-22T04:28:31.586Z,95398.51
2019-05-22T04:31:00.873Z,95403.91
2019-05-22T04:33:30.962Z,95407.02
2019-05-22T04:36:02.075Z,95415.05
2019-05-22T04:38:31.643Z,95422.17
2019-05-22T04:41:02.429Z,95426.53
2019-05-22T04:43:34.316Z,95425.27
2019-05-22T04:46:05.494Z,95420.42
2019-05-22T04:48:35.397Z,95422.45
2019-05-22T04:51:22.831Z,95422.45
2019-05-22T04:53:52.632Z,95422.63
2019-05-22T04:56:22.923Z,95428.03
2019-05-22T04:58:52.761Z,95424.33
2019-05-22T05:01:22.450Z,95430.64
2019-05-22T05:03:52.286Z,95426.83
2019-05-22T05:06:24.021Z,95433.06
2019-05-22T05:08:53.242Z,95426.23
2019-05-22T05:11:22.236Z,95430.02
2019-05-22T05:13:51.342Z,95428.42
2019-05-22T05:16:20.223Z,95427.48
2019-05-22T05:18:49.321Z,95428.29
2019-05-22T05:21:18.312Z,95425.52
2019-05-22T05:23:47.620Z,95429.06
2019-05-22T05:26:16.900Z,95427.83
2019-05-22T05:28:46.522Z,95428.56
2019-05-22T05:31:15.518Z,95430.09
2019-05-22T05:33:50.655Z,95433.78
2019-05-22T05:36:20.566Z,95436.33
2019-05-22T05:38:49.459Z,95431.69
2019-05-22T05:41:18.452Z,95430.13
2019-05-22T05:43:47.526Z,95429.23
2019-05-22T05:46:16.611Z,95438.71
2019-05-22T05:48:47.636Z,95440.80
2019-05-22T05:51:19.442Z,95443.76
2019-05-22T05:54:00.052Z,95445.62
2019-05-22T05:56:32.077Z,95443.73
2019-05-22T05:59:03.269Z,95442.31
2019-05-22T06:01:34.062Z,95446.42
2019-05-22T06:04:04.175Z,95453.17
2019-05-22T06:06:36.376Z,95448.39
2019-05-22T06:09:08.794Z,95442.83
2019-05-22T06:11:50.738Z,95447.25
2019-05-22T06:14:28.893Z,95440.45
2019-05-22T06:17:23.188Z,95448.11
2019-05-22T06:19:55.892Z,95447.94
2019-05-22T06:22:25.294Z,95442.73
2019-05-22T06:25:04.663Z,95443.30
2019-05-22T06:27:35.528Z,95444.09
2019-05-22T06:30:10.340Z,95441.91
2019-05-22T06:33:09.586Z,95448.70
2019-05-22T06:35:40.033Z,95451.27
2019-05-22T06:38:37.591Z,95450.13
2019-05-22T06:41:07.484Z,95450.22
2019-05-22T06:43:40.597Z,95450.37
2019-05-22T06:46:11.773Z,95453.45
2019-05-22T06:48:42.579Z,95450.22
2019-05-22T06:51:19.475Z,95451.40
2019-05-22T06:53:43.665Z,95454.44
2019-05-22T06:56:15.121Z,95448.22
2019-05-22T06:58:43.988Z,95451.44
2019-05-22T07:01:13.042Z,95446.25
2019-05-22T07:03:42.127Z,95450.13
2019-05-22T07:06:13.646Z,95446.23
2019-05-22T07:08:43.232Z,95453.30
2019-05-22T07:11:12.634Z,95454.48
2019-05-22T07:13:41.733Z,95452.47
2019-05-22T07:16:11.436Z,95443.63
2019-05-22T07:18:41.889Z,95445.30
2019-05-22T07:21:12.308Z,95448.29
2019-05-22T07:23:43.340Z,95443.38
2019-05-22T07:26:12.883Z,95442.28
2019-05-22T07:28:42.119Z,95447.22
2019-05-22T07:31:11.867Z,95443.73
2019-05-22T07:33:40.952Z,95446.81
2019-05-22T07:36:15.266Z,95442.96
2019-05-22T07:38:41.394Z,95443.63
2019-05-22T07:41:11.108Z,95445.50
2019-05-22T07:43:41.581Z,95444.31
2019-05-22T07:46:12.074Z,95457.19
2019-05-22T07:48:41.670Z,95444.60
2019-05-22T07:51:12.824Z,95446.59
2019-05-22T07:53:42.219Z,95441.67
2019-05-22T07:56:13.094Z,95445.71
2019-05-22T07:58:43.280Z,95442.97
2019-05-22T08:01:12.376Z,95443.53
2019-05-22T08:03:43.796Z,95438.88
2019-05-22T08:06:12.829Z,95423.59
2019-05-22T08:08:44.653Z,95431.37
2019-05-22T08:11:14.644Z,95430.83
2019-05-22T08:13:45.539Z,95434.48
2019-05-22T08:16:16.676Z,95427.66
2019-05-22T08:18:46.591Z,95424.36
2019-05-22T08:21:16.180Z,95423.58
2019-05-22T08:23:45.297Z,95423.98
2019-05-22T08:26:15.853Z,95414.76
2019-05-22T08:28:45.029Z,95427.10
2019-05-22T08:31:15.909Z,95424.02
2019-05-22T08:33:45.469Z,95425.31
2019-05-22T08:36:14.974Z,95426.36
2019-05-22T08:38:45.679Z,95426.31
2019-05-22T08:41:16.418Z,95429.11
2019-05-22T08:44:14.465Z,95427.61
2019-05-22T08:46:18.356Z,95422.36
2019-05-22T08:48:48.883Z,95422.36
2019-05-22T08:51:18.328Z,95436.13
2019-05-22T08:53:48.744Z,95430.55
2019-05-22T08:56:18.425Z,95423.83
2019-05-22T08:58:48.831Z,95423.31
2019-05-22T09:01:17.717Z,95419.89
2019-05-22T09:03:47.116Z,95428.70
2019-05-22T09:06:16.007Z,95428.23
2019-05-22T09:08:44.940Z,95438.41
2019-05-22T09:11:13.789Z,95425.02
2019-05-22T09:13:42.681Z,95427.30
2019-05-22T09:16:13.609Z,95415.19
2019-05-22T09:18:42.614Z,95419.73
2019-05-22T09:21:13.485Z,95424.34
2019-05-22T09:23:43.066Z,95417.35
2019-05-22T09:26:12.883Z,95414.48
2019-05-22T09:28:41.878Z,95435.99
2019-05-22T09:31:11.781Z,95418.40
2019-05-22T09:33:40.673Z,95426.24
2019-05-22T09:36:11.442Z,95431.71
2019-05-22T09:38:40.401Z,95422.98
2019-05-22T09:41:10.396Z,95424.05
2019-05-22T09:43:39.320Z,95424.82
2019-05-22T09:46:09.529Z,95425.38
2019-05-22T09:48:39.653Z,95432.83
2019-05-22T09:51:09.258Z,95424.96
2019-05-22T09:53:38.870Z,95422.35
2019-05-22T09:56:08.701Z,95426.08
2019-05-22T09:58:38.096Z,95426.81
2019-05-22T10:01:11.709Z,95440.45
2019-05-22T10:03:40.269Z,95433.61
2019-05-22T10:06:09.662Z,95431.23
2019-05-22T10:08:38.668Z,95427.30
2019-05-22T10:11:08.169Z,95428.61
2019-05-22T10:13:37.245Z,95426.05
2019-05-22T10:16:07.051Z,95431.36
2019-05-22T10:18:36.598Z,95427.13
2019-05-22T10:21:05.938Z,95433.23
2019-05-22T10:23:35.866Z,95427.40
2019-05-22T10:26:05.538Z,95421.86
2019-05-22T10:28:35.571Z,95428.99
2019-05-22T10:31:06.298Z,95425.56
2019-05-22T10:33:36.902Z,95428.98
2019-05-22T10:36:08.020Z,95424.98
2019-05-22T10:38:37.035Z,95427.30
2019-05-22T10:41:06.666Z,95427.86
2019-05-22T10:43:35.943Z,95420.77
2019-05-22T10:46:06.100Z,95424.45
2019-05-22T10:48:39.767Z,95428.16
2019-05-22T10:51:06.748Z,95434.77
2019-05-22T10:53:37.385Z,95435.53
2019-05-22T10:56:06.568Z,95424.43
2019-05-22T10:58:35.743Z,95425.52
2019-05-22T11:01:05.136Z,95425.75
2019-05-22T11:03:35.171Z,95420.76
2019-05-22T11:06:07.601Z,95426.07
2019-05-22T11:08:35.815Z,95411.75
2019-05-22T11:11:05.322Z,95419.17
2019-05-22T11:13:35.034Z,95418.91
2019-05-22T11:16:04.455Z,95423.91
2019-05-22T11:18:35.508Z,95438.23
2019-05-22T11:21:04.998Z,95424.50
2019-05-22T11:23:50.443Z,95421.33
2019-05-22T11:26:05.633Z,95421.30
2019-05-22T11:28:34.883Z,95418.40
2019-05-22T11:31:04.542Z,95411.28
2019-05-22T11:33:34.432Z,95422.92
2019-05-22T11:36:04.807Z,95418.44
2019-05-22T11:38:33.774Z,95415.78
2019-05-22T11:41:03.058Z,95422.05
2019-05-22T11:43:31.964Z,95421.27
2019-05-22T11:46:01.076Z,95426.30
2019-05-22T11:48:30.150Z,95415.16
2019-05-22T11:51:00.982Z,95415.41
2019-05-22T11:53:30.971Z,95423.34
2019-05-22T11:56:01.171Z,95427.64
2019-05-22T11:58:31.643Z,95420.19
2019-05-22T12:01:02.041Z,95421.79
2019-05-22T12:03:33.446Z,95412.47
2019-05-22T12:06:04.293Z,95413.72
2019-05-22T12:08:33.274Z,95407.39
2019-05-22T12:11:03.259Z,95409.87
2019-05-22T12:13:32.998Z,95402.06
2019-05-22T12:16:03.998Z,95402.39
2019-05-22T12:18:35.085Z,95399.27
2019-05-22T12:21:05.864Z,95410.13
2019-05-22T12:23:35.413Z,95415.30
2019-05-22T12:26:04.859Z,95412.92
2019-05-22T12:28:39.966Z,95408.09
2019-05-22T12:31:13.588Z,95403.40
2019-05-22T12:33:44.913Z,95413.20
2019-05-22T12:36:14.893Z,95406.70
2019-05-22T12:38:48.202Z,95404.16
2019-05-22T12:41:20.537Z,95396.50
2019-05-22T12:43:50.528Z,95406.48
2019-05-22T12:46:20.771Z,95403.35
2019-05-22T12:48:52.986Z,95404.09
2019-05-22T12:51:42.393Z,95405.97
2019-05-22T12:54:12.021Z,95398.95
2019-05-22T12:56:44.232Z,95388.38
2019-05-22T12:59:14.236Z,95403.72
2019-05-22T13:01:45.971Z,95390.72
2019-05-22T13:04:15.743Z,95387.71
2019-05-22T13:06:45.838Z,95398.53
2019-05-22T13:09:15.164Z,95397.71
2019-05-22T13:11:46.498Z,95385.83
2019-05-22T13:14:15.505Z,95388.59
2019-05-22T13:16:48.860Z,95391.69
2019-05-22T13:19:16.434Z,95384.93
2019-05-22T13:21:48.075Z,95386.45
2019-05-22T13:24:19.088Z,95383.02
2019-05-22T13:26:51.315Z,95392.43
2019-05-22T13:29:21.635Z,95389.42
2019-05-22T13:31:52.762Z,95393.61
2019-05-22T13:34:24.061Z,95387.31
2019-05-22T13:36:56.548Z,95389.01
2019-05-22T13:39:24.732Z,95390.80
2019-05-22T13:41:53.686Z,95379.65
2019-05-22T13:44:24.830Z,95394.44
2019-05-22T13:46:54.234Z,95392.68
2019-05-22T13:49:23.432Z,95386.56
2019-05-22T13:51:53.142Z,95382.11
2019-05-22T13:54:22.441Z,95382.52
2019-05-22T13:56:51.414Z,95382.05
2019-05-22T13:59:21.055Z,95387.41
2019-05-22T14:01:50.732Z,95383.06
2019-05-22T14:04:19.748Z,95378.70
2019-05-22T14:06:49.049Z,95381.86
2019-05-22T14:09:21.441Z,95376.44
2019-05-22T14:11:51.235Z,95368.73
2019-05-22T14:14:20.228Z,95375.02
2019-05-22T14:16:49.534Z,95373.13
2019-05-22T14:19:19.245Z,95375.11
2019-05-22T14:21:51.509Z,95383.30
2019-05-22T14:24:18.921Z,95377.82
2019-05-22T14:26:48.155Z,95375.05
2019-05-22T14:29:17.142Z,95373.70
2019-05-22T14:31:46.061Z,95374.42
2019-05-22T14:34:15.077Z,95376.52
2019-05-22T14:36:44.466Z,95375.37
2019-05-22T14:39:14.570Z,95379.36
2019-05-22T14:41:43.871Z,95379.16
2019-05-22T14:44:12.863Z,95373.52
2019-05-22T14:46:41.859Z,95370.22
2019-05-22T14:49:12.006Z,95385.61
2019-05-22T14:51:41.181Z,95377.45
2019-05-22T14:54:10.680Z,95381.91
2019-05-22T14:56:39.882Z,95373.13
2019-05-22T14:59:09.204Z,95377.98
2019-05-22T15:01:38.378Z,95374.32
2019-05-22T15:04:08.154Z,95371.41
2019-05-22T15:06:37.753Z,95372.27
2019-05-22T15:09:07.637Z,95363.64
2019-05-22T15:11:37.014Z,95364.75
2019-05-22T15:14:06.009Z,95357.84
2019-05-22T15:16:34.997Z,95357.84
2019-05-22T15:19:04.187Z,95358.06
2019-05-22T15:21:33.910Z,95355.25
2019-05-22T15:24:03.609Z,95366.87
2019-05-22T15:26:32.410Z,95360.13
2019-05-22T15:29:01.458Z,95362.37
2019-05-22T15:31:31.218Z,95362.19
2019-05-22T15:34:02.517Z,95361.45
2019-05-22T15:36:31.869Z,95363.01
2019-05-22T15:39:02.303Z,95356.91
2019-05-22T15:41:31.598Z,95359.41
2019-05-22T15:44:00.604Z,95366.01
2019-05-22T15:46:32.926Z,95361.33
2019-05-22T15:49:04.626Z,95368.98
2019-05-22T15:51:34.520Z,95357.89
2019-05-22T15:54:05.663Z,95366.78
2019-05-22T15:56:36.290Z,95359.58
2019-05-22T15:59:07.501Z,95361.88
2019-05-22T16:01:37.571Z,95358.70
2019-05-22T16:04:09.203Z,95360.41
2019-05-22T16:06:40.143Z,95362.59
2019-05-22T16:09:13.322Z,95360.55
2019-05-22T16:11:44.205Z,95354.46
2019-05-22T16:14:15.000Z,95359.32
2019-05-22T16:16:45.779Z,95358.44
2019-05-22T16:19:15.276Z,95356.34
2019-05-22T16:21:50.892Z,95348.06
2019-05-22T16:24:20.060Z,95355.62
2019-05-22T16:26:49.528Z,95350.65
2019-05-22T16:29:18.956Z,95353.41
2019-05-22T16:31:48.766Z,95348.29
2019-05-22T16:34:18.864Z,95339.45
2019-05-22T16:36:48.210Z,95345.49
2019-05-22T16:39:18.693Z,95343.50
2019-05-22T16:41:48.185Z,95348.08
2019-05-22T16:44:17.609Z,95355.33
2019-05-22T16:46:47.098Z,95355.08
2019-05-22T16:49:16.408Z,95352.64
2019-05-22T16:51:46.308Z,95358.66
2019-05-22T16:54:20.653Z,95352.02
2019-05-22T16:56:48.849Z,95355.32
2019-05-22T16:59:19.563Z,95362.88
2019-05-22T17:01:59.372Z,95365.24
2019-05-22T17:04:19.693Z,95361.32
2019-05-22T17:06:48.890Z,95357.64
2019-05-22T17:09:19.116Z,95358.06
2019-05-22T17:11:48.467Z,95359.52
2019-05-22T17:14:20.018Z,95355.51
2019-05-22T17:16:51.638Z,95348.42
2019-05-22T17:19:27.153Z,95342.59
2019-05-22T17:21:52.782Z,95354.41
2019-05-22T17:24:22.805Z,95347.10
2019-05-22T17:26:53.397Z,95350.77
2019-05-22T17:29:22.554Z,95353.15
2019-05-22T17:31:53.198Z,95352.86
2019-05-22T17:34:31.785Z,95360.30
2019-05-22T17:37:02.617Z,95360.19
2019-05-22T17:39:34.478Z,95357.45
2019-05-22T17:42:04.505Z,95361.33
2019-05-22T17:44:35.400Z,95365.52
2019-05-22T17:47:06.744Z,95369.09
2019-05-22T17:49:37.880Z,95370.34
2019-05-22T17:52:12.057Z,95370.34
2019-05-22T17:54:40.422Z,95369.91
2019-05-22T17:57:10.706Z,95372.44
2019-05-22T17:59:39.947Z,95368.20
2019-05-22T18:02:11.033Z,95368.92
2019-05-22T18:04:39.875Z,95375.72
2019-05-22T18:07:10.096Z,95373.92
2019-05-22T18:09:40.116Z,95385.81
2019-05-22T18:12:09.519Z,95385.81
2019-05-22T18:14:39.227Z,95386.28
2019-05-22T18:17:09.078Z,95381.26
2019-05-22T18:19:38.242Z,95385.72
2019-05-22T18:22:09.895Z,95385.53
2019-05-22T18:24:38.787Z,95390.75
2019-05-22T18:27:07.987Z,95395.06
2019-05-22T18:29:36.982Z,95389.48
2019-05-22T18:32:07.007Z,95386.78
2019-05-22T18:34:36.206Z,95392.36
2019-05-22T18:37:05.701Z,95383.77
2019-05-22T18:39:35.104Z,95385.59
2019-05-22T18:42:04.396Z,95390.60
2019-05-22T18:44:33.503Z,95395.23
2019-05-22T18:47:02.918Z,95390.79
2019-05-22T18:49:31.900Z,95390.44
2019-05-22T18:52:00.913Z,95386.77
2019-05-22T18:54:29.942Z,95395.72
2019-05-22T18:57:00.802Z,95392.91
2019-05-22T18:59:29.618Z,95396.06
2019-05-22T19:02:00.161Z,95398.27
2019-05-22T19:04:30.487Z,95397.56
2019-05-22T19:06:59.568Z,95408.27
2019-05-22T19:09:28.456Z,95405.34
2019-05-22T19:11:58.685Z,95417.56
2019-05-22T19:14:27.674Z,95410.75
2019-05-22T19:16:58.182Z,95410.22
2019-05-22T19:19:28.472Z,95413.39
2019-05-22T19:21:57.548Z,95415.75
2019-05-22T19:24:26.520Z,95418.42
2019-05-22T19:26:55.438Z,95414.97
2019-05-22T19:29:24.399Z,95421.30
2019-05-22T19:31:53.598Z,95416.77
2019-05-22T19:34:22.693Z,95422.34
2019-05-22T19:36:53.017Z,95411.95
2019-05-22T19:39:24.059Z,95427.73
2019-05-22T19:42:03.543Z,95428.60
2019-05-22T19:44:25.225Z,95438.91
2019-05-22T19:46:54.493Z,95432.78
2019-05-22T19:49:23.980Z,95435.53
2019-05-22T19:51:55.310Z,95439.09
2019-05-22T19:54:24.294Z,95438.30
2019-05-22T19:56:53.583Z,95446.21
2019-05-22T19:59:23.075Z,95440.15
2019-05-22T20:01:51.965Z,95446.91
2019-05-22T20:04:21.032Z,95457.44
2019-05-22T20:06:50.353Z,95453.64
2019-05-22T20:09:21.096Z,95450.78
2019-05-22T20:11:50.110Z,95456.28
2019-05-22T20:14:19.592Z,95455.09
2019-05-22T20:16:48.697Z,95463.06
2019-05-22T20:19:17.993Z,95454.80
2019-05-22T20:21:48.221Z,95462.62
2019-05-22T20:24:17.618Z,95463.30
2019-05-22T20:26:46.614Z,95466.67
2019-05-22T20:29:16.372Z,95470.45
2019-05-22T20:31:45.725Z,95473.53
2019-05-22T20:34:15.346Z,95468.20
2019-05-22T20:36:44.141Z,95468.72
2019-05-22T20:39:14.859Z,95474.50
2019-05-22T20:41:43.748Z,95474.50
2019-05-22T20:44:12.851Z,95474.34
2019-05-22T20:46:43.508Z,95472.70
2019-05-22T20:49:12.372Z,95474.18
2019-05-22T20:51:42.801Z,95469.70
2019-05-22T20:54:13.091Z,95478.55
2019-05-22T20:56:44.598Z,95475.36
2019-05-22T20:59:14.380Z,95470.13
2019-05-22T21:01:43.277Z,95468.59
2019-05-22T21:04:13.876Z,95464.53
2019-05-22T21:06:49.158Z,95466.61
2019-05-22T21:09:19.345Z,95477.77
2019-05-22T21:11:48.874Z,95476.88
2019-05-22T21:14:17.971Z,95470.66
2019-05-22T21:16:46.862Z,95479.81
2019-05-22T21:19:15.858Z,95473.87
2019-05-22T21:21:45.053Z,95469.48
2019-05-22T21:24:14.354Z,95473.67
2019-05-22T21:26:44.047Z,95470.91
2019-05-22T21:29:13.571Z,95468.58
2019-05-22T21:31:43.043Z,95466.27
2019-05-22T21:34:12.073Z,95466.27
2019-05-22T21:36:41.373Z,95462.87
2019-05-22T21:39:13.422Z,95463.02
2019-05-22T21:41:42.327Z,95459.54
2019-05-22T21:44:11.834Z,95452.38
2019-05-22T21:46:41.531Z,95453.72
2019-05-22T21:49:12.587Z,95461.00
2019-05-22T21:51:41.481Z,95441.08
2019-05-22T21:54:12.298Z,95443.66
2019-05-22T21:56:43.151Z,95447.52
2019-05-22T21:59:13.552Z,95446.25
2019-05-22T22:01:44.312Z,95449.30
2019-05-22T22:04:21.205Z,95444.53
2019-05-22T22:06:52.887Z,95445.70
2019-05-22T22:09:23.129Z,95444.64
2019-05-22T22:11:54.092Z,95449.41
2019-05-22T22:14:24.118Z,95449.65
2019-05-22T22:16:53.022Z,95451.16
2019-05-22T22:19:22.629Z,95449.38
2019-05-22T22:21:51.924Z,95445.58
2019-05-22T22:24:21.636Z,95449.85
2019-05-22T22:26:51.132Z,95449.16
2019-05-22T22:29:20.953Z,95457.41
2019-05-22T22:31:51.493Z,95456.91
2019-05-22T22:34:23.447Z,95457.34
2019-05-22T22:36:52.543Z,95459.63
2019-05-22T22:39:21.844Z,95463.59
2019-05-22T22:41:51.163Z,95456.42
2019-05-22T22:44:21.234Z,95465.31
2019-05-22T22:46:57.630Z,95462.80
2019-05-22T22:49:28.118Z,95465.66
2019-05-22T22:51:57.770Z,95465.05
2019-05-22T22:54:26.865Z,95459.06
2019-05-22T22:56:56.447Z,95461.42
2019-05-22T22:59:26.766Z,95466.03
2019-05-22T23:01:56.842Z,95467.56
2019-05-22T23:04:28.595Z,95461.41
2019-05-22T23:07:00.630Z,95460.06
2019-05-22T23:09:29.531Z,95469.48
2019-05-22T23:11:59.919Z,95468.30
2019-05-22T23:14:29.771Z,95465.68
2019-05-22T23:16:58.867Z,95472.41
2019-05-22T23:19:33.932Z,95467.14
2019-05-22T23:22:03.106Z,95472.84
2019-05-22T23:24:34.330Z,95472.84
2019-05-22T23:27:03.731Z,95475.93
2019-05-22T23:29:33.644Z,95473.84
2019-05-22T23:32:04.206Z,95476.47
2019-05-22T23:34:33.086Z,95473.77
2019-05-22T23:37:02.914Z,95472.72
2019-05-22T23:39:32.794Z,95474.80
2019-05-22T23:42:04.936Z,95483.02
2019-05-22T23:44:36.125Z,95473.28
2019-05-22T23:47:05.614Z,95485.39
2019-05-22T23:49:36.089Z,95491.44
2019-05-22T23:52:06.536Z,95482.02
2019-05-22T23:54:36.403Z,95483.38
2019-05-22T23:57:05.387Z,95478.55
2019-05-22T23:59:36.239Z,95477.43
